sensor_id;sensor_type;location;lat;lon;timestamp;pressure;altitude;pressure_sealevel;temperature;humidity
18509;BME280;9383;50.928;12.116;2023-11-21T00:00:40;98117.66;;;7.18;100.00
18509;BME280;9383;50.928;12.116;2023-11-21T00:03:07;98142.63;;;7.33;100.00
18509;BME280;9383;50.928;12.116;2023-11-21T00:05:33;98092.91;;;6.97;100.00
18509;BME280;9383;50.928;12.116;2023-11-21T00:08:00;98140.84;;;7.34;100.00
18509;BME280;9383;50.928;12.116;2023-11-21T00:10:26;98095.22;;;7.06;100.00
18509;BME280;9383;50.928;12.116;2023-11-21T00:12:52;98184.97;;;7.54;100.00
18509;BME280;9383;50.928;12.116;2023-11-21T00:15:21;98188.44;;;7.56;100.00
18509;BME280;9383;50.928;12.116;2023-11-21T00:17:47;98158.13;;;7.42;100.00
18509;BME280;9383;50.928;12.116;2023-11-21T00:20:13;98145.97;;;7.38;100.00
18509;BME280;9383;50.928;12.116;2023-11-21T00:22:39;98178.09;;;7.50;100.00
18509;BME280;9383;50.928;12.116;2023-11-21T00:25:07;98186.69;;;7.55;100.00
18509;BME280;9383;50.928;12.116;2023-11-21T00:27:36;98087.03;;;6.88;100.00
18509;BME280;9383;50.928;12.116;2023-11-21T00:30:03;98181.81;;;7.44;100.00
18509;BME280;9383;50.928;12.116;2023-11-21T00:32:51;98191.13;;;7.54;100.00
18509;BME280;9383;50.928;12.116;2023-11-21T00:35:17;98183.41;;;7.48;100.00
18509;BME280;9383;50.928;12.116;2023-11-21T00:37:45;98133.94;;;7.04;100.00
18509;BME280;9383;50.928;12.116;2023-11-21T00:40:12;98161.91;;;7.35;100.00
18509;BME280;9383;50.928;12.116;2023-11-21T00:42:38;98123.22;;;7.10;100.00
18509;BME280;9383;50.928;12.116;2023-11-21T00:45:06;98176.16;;;7.29;100.00
18509;BME280;9383;50.928;12.116;2023-11-21T00:47:32;98163.72;;;7.33;100.00
18509;BME280;9383;50.928;12.116;2023-11-21T00:49:58;98175.41;;;7.26;100.00
18509;BME280;9383;50.928;12.116;2023-11-21T00:52:25;98135.47;;;7.11;100.00
18509;BME280;9383;50.928;12.116;2023-11-21T00:54:51;98178.63;;;7.34;100.00
18509;BME280;9383;50.928;12.116;2023-11-21T00:57:18;98189.06;;;7.37;100.00
18509;BME280;9383;50.928;12.116;2023-11-21T00:59:44;98201.03;;;7.48;100.00
18509;BME280;9383;50.928;12.116;2023-11-21T01:02:11;98071.13;;;6.65;100.00
18509;BME280;9383;50.928;12.116;2023-11-21T01:04:37;98189.22;;;7.32;100.00
18509;BME280;9383;50.928;12.116;2023-11-21T01:07:04;98072.16;;;6.60;100.00
18509;BME280;9383;50.928;12.116;2023-11-21T01:09:31;98166.06;;;7.15;100.00
18509;BME280;9383;50.928;12.116;2023-11-21T01:11:57;98177.34;;;7.21;100.00
18509;BME280;9383;50.928;12.116;2023-11-21T01:14:25;98091.25;;;6.67;100.00
18509;BME280;9383;50.928;12.116;2023-11-21T01:16:53;98120.66;;;6.80;100.00
18509;BME280;9383;50.928;12.116;2023-11-21T01:19:19;98149.19;;;6.94;100.00
18509;BME280;9383;50.928;12.116;2023-11-21T01:21:46;98168.09;;;7.07;100.00
18509;BME280;9383;50.928;12.116;2023-11-21T01:24:12;98156.34;;;6.90;100.00
18509;BME280;9383;50.928;12.116;2023-11-21T01:26:38;98207.78;;;7.29;100.00
18509;BME280;9383;50.928;12.116;2023-11-21T01:29:04;98220.16;;;7.27;100.00
18509;BME280;9383;50.928;12.116;2023-11-21T01:31:34;98210.88;;;7.15;100.00
18509;BME280;9383;50.928;12.116;2023-11-21T01:34:00;98079.69;;;6.44;100.00
18509;BME280;9383;50.928;12.116;2023-11-21T01:36:31;98154.00;;;6.81;100.00
18509;BME280;9383;50.928;12.116;2023-11-21T01:39:01;98220.34;;;7.21;100.00
18509;BME280;9383;50.928;12.116;2023-11-21T01:41:27;98174.66;;;6.94;100.00
18509;BME280;9383;50.928;12.116;2023-11-21T01:43:55;98194.44;;;7.07;100.00
18509;BME280;9383;50.928;12.116;2023-11-21T01:46:22;98221.31;;;7.18;100.00
18509;BME280;9383;50.928;12.116;2023-11-21T01:48:52;98233.38;;;7.26;100.00
18509;BME280;9383;50.928;12.116;2023-11-21T01:51:19;98194.50;;;7.06;100.00
18509;BME280;9383;50.928;12.116;2023-11-21T01:53:46;98162.81;;;6.80;100.00
18509;BME280;9383;50.928;12.116;2023-11-21T01:56:13;98162.75;;;6.83;100.00
18509;BME280;9383;50.928;12.116;2023-11-21T01:58:40;98214.78;;;7.03;100.00
18509;BME280;9383;50.928;12.116;2023-11-21T02:01:07;98205.06;;;7.06;100.00
18509;BME280;9383;50.928;12.116;2023-11-21T02:03:33;98122.44;;;6.53;100.00
18509;BME280;9383;50.928;12.116;2023-11-21T02:05:59;98160.53;;;6.69;100.00
18509;BME280;9383;50.928;12.116;2023-11-21T02:08:25;98150.84;;;6.70;100.00
18509;BME280;9383;50.928;12.116;2023-11-21T02:10:52;98120.13;;;6.42;100.00
18509;BME280;9383;50.928;12.116;2023-11-21T02:13:18;98169.34;;;6.68;100.00
18509;BME280;9383;50.928;12.116;2023-11-21T02:15:45;98173.56;;;6.74;100.00
18509;BME280;9383;50.928;12.116;2023-11-21T02:18:11;98217.47;;;7.02;100.00
18509;BME280;9383;50.928;12.116;2023-11-21T02:20:37;98167.63;;;6.67;100.00
18509;BME280;9383;50.928;12.116;2023-11-21T02:23:05;98165.78;;;6.71;100.00
18509;BME280;9383;50.928;12.116;2023-11-21T02:25:32;98128.66;;;6.50;100.00
18509;BME280;9383;50.928;12.116;2023-11-21T02:28:02;98166.56;;;6.73;100.00
18509;BME280;9383;50.928;12.116;2023-11-21T02:30:29;98233.91;;;7.10;100.00
18509;BME280;9383;50.928;12.116;2023-11-21T02:32:58;98166.75;;;6.67;100.00
18509;BME280;9383;50.928;12.116;2023-11-21T02:35:24;98184.81;;;6.79;100.00
18509;BME280;9383;50.928;12.116;2023-11-21T02:37:54;98224.31;;;7.08;100.00
18509;BME280;9383;50.928;12.116;2023-11-21T02:40:20;98118.50;;;6.38;100.00
18509;BME280;9383;50.928;12.116;2023-11-21T02:42:47;98238.44;;;7.05;100.00
18509;BME280;9383;50.928;12.116;2023-11-21T02:45:15;98178.94;;;6.71;100.00
18509;BME280;9383;50.928;12.116;2023-11-21T02:47:45;98204.88;;;6.83;100.00
18509;BME280;9383;50.928;12.116;2023-11-21T02:50:11;98118.09;;;6.23;100.00
18509;BME280;9383;50.928;12.116;2023-11-21T02:52:38;98137.75;;;6.40;100.00
18509;BME280;9383;50.928;12.116;2023-11-21T02:55:06;98144.84;;;6.38;100.00
18509;BME280;9383;50.928;12.116;2023-11-21T02:57:33;98231.03;;;6.89;100.00
18509;BME280;9383;50.928;12.116;2023-11-21T02:59:59;98137.94;;;6.33;100.00
18509;BME280;9383;50.928;12.116;2023-11-21T03:02:28;98235.34;;;6.92;100.00
18509;BME280;9383;50.928;12.116;2023-11-21T03:04:55;98157.75;;;6.45;100.00
18509;BME280;9383;50.928;12.116;2023-11-21T03:07:21;98175.00;;;6.56;100.00
18509;BME280;9383;50.928;12.116;2023-11-21T03:09:47;98220.75;;;6.80;100.00
18509;BME280;9383;50.928;12.116;2023-11-21T03:12:13;98236.19;;;6.93;100.00
18509;BME280;9383;50.928;12.116;2023-11-21T03:14:40;98170.75;;;6.52;100.00
18509;BME280;9383;50.928;12.116;2023-11-21T03:17:06;98150.19;;;6.35;100.00
18509;BME280;9383;50.928;12.116;2023-11-21T03:19:32;98254.56;;;6.96;100.00
18509;BME280;9383;50.928;12.116;2023-11-21T03:21:58;98216.63;;;6.73;100.00
18509;BME280;9383;50.928;12.116;2023-11-21T03:24:25;98156.13;;;6.41;100.00
18509;BME280;9383;50.928;12.116;2023-11-21T03:26:52;98195.13;;;6.58;100.00
18509;BME280;9383;50.928;12.116;2023-11-21T03:29:18;98221.69;;;6.79;100.00
18509;BME280;9383;50.928;12.116;2023-11-21T03:31:46;98066.09;;;5.71;100.00
18509;BME280;9383;50.928;12.116;2023-11-21T03:34:24;98227.09;;;6.74;100.00
18509;BME280;9383;50.928;12.116;2023-11-21T03:36:51;98183.03;;;6.51;100.00
18509;BME280;9383;50.928;12.116;2023-11-21T03:39:24;98127.19;;;6.11;100.00
18509;BME280;9383;50.928;12.116;2023-11-21T03:41:51;98102.19;;;5.96;100.00
18509;BME280;9383;50.928;12.116;2023-11-21T03:44:17;98111.03;;;5.94;100.00
18509;BME280;9383;50.928;12.116;2023-11-21T03:46:44;98237.72;;;6.71;100.00
18509;BME280;9383;50.928;12.116;2023-11-21T03:49:10;98238.50;;;6.75;100.00
18509;BME280;9383;50.928;12.116;2023-11-21T03:51:37;98222.03;;;6.68;100.00
18509;BME280;9383;50.928;12.116;2023-11-21T03:54:03;98121.31;;;6.03;100.00
18509;BME280;9383;50.928;12.116;2023-11-21T03:56:30;98206.97;;;6.43;100.00
18509;BME280;9383;50.928;12.116;2023-11-21T03:58:56;98262.88;;;6.82;100.00
18509;BME280;9383;50.928;12.116;2023-11-21T04:01:22;98237.16;;;6.61;100.00
18509;BME280;9383;50.928;12.116;2023-11-21T04:03:50;98175.66;;;6.34;100.00
18509;BME280;9383;50.928;12.116;2023-11-21T04:06:17;98249.81;;;6.79;100.00
18509;BME280;9383;50.928;12.116;2023-11-21T04:08:44;98151.00;;;6.07;100.00
18509;BME280;9383;50.928;12.116;2023-11-21T04:11:12;98187.88;;;6.37;100.00
18509;BME280;9383;50.928;12.116;2023-11-21T04:13:39;98261.19;;;6.79;100.00
18509;BME280;9383;50.928;12.116;2023-11-21T04:16:07;98254.34;;;6.73;100.00
18509;BME280;9383;50.928;12.116;2023-11-21T04:18:36;98255.16;;;6.75;100.00
18509;BME280;9383;50.928;12.116;2023-11-21T04:21:05;98236.34;;;6.59;100.00
18509;BME280;9383;50.928;12.116;2023-11-21T04:23:31;98154.28;;;6.15;100.00
18509;BME280;9383;50.928;12.116;2023-11-21T04:25:58;98266.31;;;6.84;100.00
18509;BME280;9383;50.928;12.116;2023-11-21T04:28:25;98261.56;;;6.67;100.00
18509;BME280;9383;50.928;12.116;2023-11-21T04:30:51;98210.63;;;6.39;100.00
18509;BME280;9383;50.928;12.116;2023-11-21T04:33:17;98215.00;;;6.39;100.00
18509;BME280;9383;50.928;12.116;2023-11-21T04:35:43;98261.63;;;6.65;100.00
18509;BME280;9383;50.928;12.116;2023-11-21T04:38:09;98178.03;;;6.13;100.00
18509;BME280;9383;50.928;12.116;2023-11-21T04:40:35;98189.31;;;6.17;100.00
18509;BME280;9383;50.928;12.116;2023-11-21T04:43:11;98261.63;;;6.65;100.00
18509;BME280;9383;50.928;12.116;2023-11-21T04:45:37;98283.31;;;6.73;100.00
18509;BME280;9383;50.928;12.116;2023-11-21T04:48:04;98252.28;;;6.55;100.00
18509;BME280;9383;50.928;12.116;2023-11-21T04:50:32;98243.00;;;6.41;100.00
18509;BME280;9383;50.928;12.116;2023-11-21T04:52:58;98314.06;;;6.73;100.00
18509;BME280;9383;50.928;12.116;2023-11-21T04:55:24;98216.41;;;6.21;100.00
18509;BME280;9383;50.928;12.116;2023-11-21T04:57:54;98241.78;;;6.23;100.00
18509;BME280;9383;50.928;12.116;2023-11-21T05:00:20;98165.84;;;5.77;100.00
18509;BME280;9383;50.928;12.116;2023-11-21T05:02:47;98261.09;;;6.22;100.00
18509;BME280;9383;50.928;12.116;2023-11-21T05:05:13;98167.22;;;5.59;100.00
18509;BME280;9383;50.928;12.116;2023-11-21T05:07:40;98293.41;;;6.27;100.00
18509;BME280;9383;50.928;12.116;2023-11-21T05:10:08;98194.41;;;5.58;100.00
18509;BME280;9383;50.928;12.116;2023-11-21T05:12:37;98253.97;;;5.93;100.00
18509;BME280;9383;50.928;12.116;2023-11-21T05:15:07;98257.25;;;5.69;100.00
18509;BME280;9383;50.928;12.116;2023-11-21T05:17:34;98320.31;;;6.05;100.00
18509;BME280;9383;50.928;12.116;2023-11-21T05:20:00;98205.13;;;5.16;100.00
18509;BME280;9383;50.928;12.116;2023-11-21T05:22:30;98196.34;;;5.17;100.00
18509;BME280;9383;50.928;12.116;2023-11-21T05:24:56;98246.00;;;5.28;100.00
18509;BME280;9383;50.928;12.116;2023-11-21T05:27:22;98314.25;;;5.67;100.00
18509;BME280;9383;50.928;12.116;2023-11-21T05:29:49;98329.91;;;5.72;100.00
18509;BME280;9383;50.928;12.116;2023-11-21T05:32:15;98219.72;;;4.91;100.00
18509;BME280;9383;50.928;12.116;2023-11-21T05:34:42;98263.06;;;5.10;100.00
18509;BME280;9383;50.928;12.116;2023-11-21T05:37:08;98262.34;;;5.03;100.00
18509;BME280;9383;50.928;12.116;2023-11-21T05:39:34;98232.63;;;4.63;100.00
18509;BME280;9383;50.928;12.116;2023-11-21T05:42:02;98341.66;;;5.20;100.00
18509;BME280;9383;50.928;12.116;2023-11-21T05:44:29;98334.88;;;5.10;100.00
18509;BME280;9383;50.928;12.116;2023-11-21T05:46:56;98317.75;;;4.92;100.00
18509;BME280;9383;50.928;12.116;2023-11-21T05:49:22;98252.19;;;4.49;100.00
18509;BME280;9383;50.928;12.116;2023-11-21T05:51:56;98237.69;;;4.31;100.00
18509;BME280;9383;50.928;12.116;2023-11-21T05:54:22;98259.63;;;4.27;100.00
18509;BME280;9383;50.928;12.116;2023-11-21T05:56:49;98353.88;;;4.82;100.00
18509;BME280;9383;50.928;12.116;2023-11-21T05:59:16;98347.91;;;4.74;100.00
18509;BME280;9383;50.928;12.116;2023-11-21T06:01:42;98291.00;;;4.32;100.00
18509;BME280;9383;50.928;12.116;2023-11-21T06:04:08;98251.44;;;3.99;100.00
18509;BME280;9383;50.928;12.116;2023-11-21T06:06:36;98339.78;;;4.42;100.00
18509;BME280;9383;50.928;12.116;2023-11-21T06:09:18;98257.69;;;3.91;100.00
18509;BME280;9383;50.928;12.116;2023-11-21T06:11:47;98301.06;;;4.10;100.00
18509;BME280;9383;50.928;12.116;2023-11-21T06:14:14;98233.94;;;3.52;100.00
18509;BME280;9383;50.928;12.116;2023-11-21T06:16:44;98285.03;;;3.79;100.00
18509;BME280;9383;50.928;12.116;2023-11-21T06:19:11;98262.69;;;3.57;100.00
18509;BME280;9383;50.928;12.116;2023-11-21T06:21:38;98310.44;;;3.73;100.00
18509;BME280;9383;50.928;12.116;2023-11-21T06:24:05;98275.88;;;3.52;100.00
18509;BME280;9383;50.928;12.116;2023-11-21T06:26:31;98277.69;;;3.47;100.00
18509;BME280;9383;50.928;12.116;2023-11-21T06:28:58;98251.00;;;3.24;100.00
18509;BME280;9383;50.928;12.116;2023-11-21T06:31:24;98299.63;;;3.41;100.00
18509;BME280;9383;50.928;12.116;2023-11-21T06:33:51;98327.41;;;3.53;100.00
18509;BME280;9383;50.928;12.116;2023-11-21T06:36:19;98386.31;;;3.84;100.00
18509;BME280;9383;50.928;12.116;2023-11-21T06:38:47;98321.47;;;3.40;100.00
18509;BME280;9383;50.928;12.116;2023-11-21T06:41:13;98329.38;;;3.37;100.00
18509;BME280;9383;50.928;12.116;2023-11-21T06:43:41;98334.63;;;3.37;100.00
18509;BME280;9383;50.928;12.116;2023-11-21T06:46:13;98244.75;;;2.77;100.00
18509;BME280;9383;50.928;12.116;2023-11-21T06:48:43;98348.75;;;3.27;100.00
18509;BME280;9383;50.928;12.116;2023-11-21T06:51:09;98403.97;;;3.71;100.00
18509;BME280;9383;50.928;12.116;2023-11-21T06:53:37;98265.53;;;2.88;100.00
18509;BME280;9383;50.928;12.116;2023-11-21T06:56:04;98296.66;;;3.08;100.00
18509;BME280;9383;50.928;12.116;2023-11-21T06:58:33;98358.09;;;3.45;100.00
18509;BME280;9383;50.928;12.116;2023-11-21T07:00:59;98385.69;;;3.66;100.00
18509;BME280;9383;50.928;12.116;2023-11-21T07:03:26;98364.97;;;3.52;100.00
18509;BME280;9383;50.928;12.116;2023-11-21T07:05:52;98388.38;;;3.63;100.00
18509;BME280;9383;50.928;12.116;2023-11-21T07:08:18;98353.00;;;3.35;100.00
18509;BME280;9383;50.928;12.116;2023-11-21T07:10:45;98429.88;;;3.91;100.00
18509;BME280;9383;50.928;12.116;2023-11-21T07:13:11;98432.47;;;3.94;100.00
18509;BME280;9383;50.928;12.116;2023-11-21T07:15:38;98342.41;;;3.42;100.00
18509;BME280;9383;50.928;12.116;2023-11-21T07:18:05;98432.50;;;3.91;100.00
18509;BME280;9383;50.928;12.116;2023-11-21T07:20:34;98446.28;;;4.05;100.00
18509;BME280;9383;50.928;12.116;2023-11-21T07:23:00;98326.72;;;3.40;100.00
18509;BME280;9383;50.928;12.116;2023-11-21T07:25:26;98311.88;;;3.39;100.00
18509;BME280;9383;50.928;12.116;2023-11-21T07:27:54;98355.94;;;3.70;100.00
18509;BME280;9383;50.928;12.116;2023-11-21T07:30:21;98418.22;;;4.11;100.00
18509;BME280;9383;50.928;12.116;2023-11-21T07:32:49;98442.34;;;4.31;100.00
18509;BME280;9383;50.928;12.116;2023-11-21T07:35:15;98417.22;;;4.16;100.00
18509;BME280;9383;50.928;12.116;2023-11-21T07:37:41;98454.38;;;4.43;100.00
18509;BME280;9383;50.928;12.116;2023-11-21T07:40:09;98376.31;;;4.04;100.00
18509;BME280;9383;50.928;12.116;2023-11-21T07:42:38;98402.25;;;4.23;100.00
18509;BME280;9383;50.928;12.116;2023-11-21T07:45:07;98377.81;;;4.21;100.00
18509;BME280;9383;50.928;12.116;2023-11-21T07:47:33;98403.59;;;4.44;100.00
18509;BME280;9383;50.928;12.116;2023-11-21T07:50:03;98375.03;;;4.29;100.00
18509;BME280;9383;50.928;12.116;2023-11-21T07:52:29;98422.50;;;4.63;100.00
18509;BME280;9383;50.928;12.116;2023-11-21T07:54:55;98370.47;;;4.39;100.00
18509;BME280;9383;50.928;12.116;2023-11-21T07:57:22;98461.94;;;5.06;100.00
18509;BME280;9383;50.928;12.116;2023-11-21T07:59:48;98457.53;;;5.06;100.00
18509;BME280;9383;50.928;12.116;2023-11-21T08:02:14;98415.78;;;4.92;100.00
18509;BME280;9383;50.928;12.116;2023-11-21T08:04:42;98372.50;;;4.70;100.00
18509;BME280;9383;50.928;12.116;2023-11-21T08:07:09;98445.94;;;5.18;100.00
18509;BME280;9383;50.928;12.116;2023-11-21T08:09:41;98468.09;;;5.47;100.00
18509;BME280;9383;50.928;12.116;2023-11-21T08:12:08;98412.59;;;5.20;100.00
18509;BME280;9383;50.928;12.116;2023-11-21T08:14:36;98471.19;;;5.65;100.00
18509;BME280;9383;50.928;12.116;2023-11-21T08:17:05;98472.72;;;5.75;100.00
18509;BME280;9383;50.928;12.116;2023-11-21T08:19:32;98432.81;;;5.58;100.00
18509;BME280;9383;50.928;12.116;2023-11-21T08:22:01;98473.31;;;5.88;100.00
18509;BME280;9383;50.928;12.116;2023-11-21T08:24:28;98330.53;;;5.09;100.00
18509;BME280;9383;50.928;12.116;2023-11-21T08:26:54;98430.03;;;5.64;100.00
18509;BME280;9383;50.928;12.116;2023-11-21T08:29:21;98478.19;;;6.05;100.00
18509;BME280;9383;50.928;12.116;2023-11-21T08:31:47;98490.41;;;6.08;100.00
18509;BME280;9383;50.928;12.116;2023-11-21T08:34:14;98380.25;;;5.56;100.00
18509;BME280;9383;50.928;12.116;2023-11-21T08:36:44;98434.88;;;5.81;100.00
18509;BME280;9383;50.928;12.116;2023-11-21T08:39:10;98400.16;;;5.67;100.00
18509;BME280;9383;50.928;12.116;2023-11-21T08:41:36;98483.84;;;6.26;100.00
18509;BME280;9383;50.928;12.116;2023-11-21T08:44:05;98478.56;;;6.26;100.00
18509;BME280;9383;50.928;12.116;2023-11-21T08:46:34;98500.97;;;6.43;100.00
18509;BME280;9383;50.928;12.116;2023-11-21T08:49:02;98478.25;;;6.39;100.00
18509;BME280;9383;50.928;12.116;2023-11-21T08:51:29;98478.28;;;6.37;100.00
18509;BME280;9383;50.928;12.116;2023-11-21T08:53:58;98496.19;;;6.59;100.00
18509;BME280;9383;50.928;12.116;2023-11-21T08:56:27;98481.41;;;6.53;100.00
18509;BME280;9383;50.928;12.116;2023-11-21T08:58:53;98488.38;;;6.56;100.00
18509;BME280;9383;50.928;12.116;2023-11-21T09:01:20;98465.66;;;6.52;100.00
18509;BME280;9383;50.928;12.116;2023-11-21T09:03:46;98474.50;;;6.49;100.00
18509;BME280;9383;50.928;12.116;2023-11-21T09:06:14;98518.38;;;6.83;100.00
18509;BME280;9383;50.928;12.116;2023-11-21T09:08:40;98487.97;;;6.70;100.00
18509;BME280;9383;50.928;12.116;2023-11-21T09:11:07;98368.72;;;5.98;100.00
18509;BME280;9383;50.928;12.116;2023-11-21T09:13:34;98444.81;;;6.42;100.00
18509;BME280;9383;50.928;12.116;2023-11-21T09:16:02;98473.28;;;6.61;100.00
18509;BME280;9383;50.928;12.116;2023-11-21T09:18:29;98526.84;;;6.95;100.00
18509;BME280;9383;50.928;12.116;2023-11-21T09:20:55;98519.03;;;6.92;100.00
18509;BME280;9383;50.928;12.116;2023-11-21T09:23:21;98520.69;;;6.96;100.00
18509;BME280;9383;50.928;12.116;2023-11-21T09:25:48;98503.53;;;6.79;100.00
18509;BME280;9383;50.928;12.116;2023-11-21T09:28:16;98479.13;;;6.72;100.00
18509;BME280;9383;50.928;12.116;2023-11-21T09:30:44;98533.66;;;7.03;100.00
18509;BME280;9383;50.928;12.116;2023-11-21T09:33:11;98536.22;;;7.05;100.00
18509;BME280;9383;50.928;12.116;2023-11-21T09:35:38;98456.97;;;6.48;100.00
18509;BME280;9383;50.928;12.116;2023-11-21T09:38:04;98516.41;;;6.92;100.00
18509;BME280;9383;50.928;12.116;2023-11-21T09:40:38;98488.53;;;6.83;100.00
18509;BME280;9383;50.928;12.116;2023-11-21T09:43:10;98536.94;;;7.12;100.00
18509;BME280;9383;50.928;12.116;2023-11-21T09:45:48;98526.91;;;6.93;100.00
18509;BME280;9383;50.928;12.116;2023-11-21T09:48:20;98537.06;;;7.07;100.00
18509;BME280;9383;50.928;12.116;2023-11-21T09:50:47;98538.06;;;7.03;100.00
18509;BME280;9383;50.928;12.116;2023-11-21T09:53:19;98565.81;;;7.16;100.00
18509;BME280;9383;50.928;12.116;2023-11-21T09:55:56;98524.97;;;7.00;100.00
18509;BME280;9383;50.928;12.116;2023-11-21T09:58:24;98476.59;;;6.69;100.00
18509;BME280;9383;50.928;12.116;2023-11-21T10:00:54;98544.22;;;7.02;100.00
18509;BME280;9383;50.928;12.116;2023-11-21T10:03:30;98559.03;;;7.08;100.00
18509;BME280;9383;50.928;12.116;2023-11-21T10:05:57;98533.66;;;7.03;100.00
18509;BME280;9383;50.928;12.116;2023-11-21T10:08:27;98541.69;;;6.99;100.00
18509;BME280;9383;50.928;12.116;2023-11-21T10:10:56;98455.97;;;6.52;100.00
18509;BME280;9383;50.928;12.116;2023-11-21T10:13:24;98424.09;;;6.30;100.00
18509;BME280;9383;50.928;12.116;2023-11-21T10:15:52;98527.63;;;6.98;100.00
18509;BME280;9383;50.928;12.116;2023-11-21T10:18:38;98552.13;;;7.02;100.00
18509;BME280;9383;50.928;12.116;2023-11-21T10:21:08;98499.41;;;6.70;100.00
18509;BME280;9383;50.928;12.116;2023-11-21T10:23:35;98423.28;;;6.26;100.00
18509;BME280;9383;50.928;12.116;2023-11-21T10:26:03;98423.41;;;6.22;100.00
18509;BME280;9383;50.928;12.116;2023-11-21T10:28:35;98546.03;;;7.00;100.00
18509;BME280;9383;50.928;12.116;2023-11-21T10:31:11;98504.53;;;6.75;100.00
18509;BME280;9383;50.928;12.116;2023-11-21T10:33:39;98540.19;;;6.88;100.00
18509;BME280;9383;50.928;12.116;2023-11-21T10:36:09;98570.34;;;7.11;100.00
18509;BME280;9383;50.928;12.116;2023-11-21T10:38:45;98465.78;;;6.47;100.00
18509;BME280;9383;50.928;12.116;2023-11-21T10:41:20;98565.22;;;7.05;100.00
18509;BME280;9383;50.928;12.116;2023-11-21T10:43:47;98567.91;;;7.03;100.00
18509;BME280;9383;50.928;12.116;2023-11-21T10:46:14;98577.38;;;7.11;100.00
18509;BME280;9383;50.928;12.116;2023-11-21T10:48:42;98524.72;;;6.76;100.00
18509;BME280;9383;50.928;12.116;2023-11-21T10:51:08;98522.09;;;6.74;100.00
18509;BME280;9383;50.928;12.116;2023-11-21T10:53:40;98518.75;;;6.68;100.00
18509;BME280;9383;50.928;12.116;2023-11-21T10:56:13;98567.03;;;7.03;100.00
18509;BME280;9383;50.928;12.116;2023-11-21T10:58:45;98582.50;;;7.17;100.00
18509;BME280;9383;50.928;12.116;2023-11-21T11:01:16;98541.84;;;6.93;100.00
18509;BME280;9383;50.928;12.116;2023-11-21T11:03:46;98561.78;;;7.03;100.00
18509;BME280;9383;50.928;12.116;2023-11-21T11:06:15;98515.81;;;6.80;100.00
18509;BME280;9383;50.928;12.116;2023-11-21T11:08:42;98590.19;;;7.25;100.00
18509;BME280;9383;50.928;12.116;2023-11-21T11:11:10;98581.59;;;7.18;100.00
18509;BME280;9383;50.928;12.116;2023-11-21T11:13:43;98585.00;;;7.22;100.00
18509;BME280;9383;50.928;12.116;2023-11-21T11:16:15;98544.34;;;6.97;100.00
18509;BME280;9383;50.928;12.116;2023-11-21T11:18:44;98585.03;;;7.20;100.00
18509;BME280;9383;50.928;12.116;2023-11-21T11:28:07;98587.13;;;7.07;100.00
18509;BME280;9383;50.928;12.116;2023-11-21T11:33:42;98603.84;;;7.06;100.00
18509;BME280;9383;50.928;12.116;2023-11-21T11:36:37;98605.78;;;6.99;100.00
18509;BME280;9383;50.928;12.116;2023-11-21T11:39:31;98596.31;;;6.92;100.00
18509;BME280;9383;50.928;12.116;2023-11-21T11:42:03;98542.66;;;6.61;100.00
18509;BME280;9383;50.928;12.116;2023-11-21T11:47:35;98548.84;;;6.59;100.00
18509;BME280;9383;50.928;12.116;2023-11-21T11:50:12;98593.13;;;6.79;100.00
18509;BME280;9383;50.928;12.116;2023-11-21T11:52:45;98537.53;;;6.55;100.00
18509;BME280;9383;50.928;12.116;2023-11-21T11:55:13;98615.47;;;6.99;100.00
18509;BME280;9383;50.928;12.116;2023-11-21T11:57:42;98561.09;;;6.60;100.00
18509;BME280;9383;50.928;12.116;2023-11-21T12:00:12;98619.78;;;7.01;100.00
18509;BME280;9383;50.928;12.116;2023-11-21T12:02:45;98602.41;;;6.94;100.00
18509;BME280;9383;50.928;12.116;2023-11-21T12:05:16;98622.50;;;6.98;100.00
18509;BME280;9383;50.928;12.116;2023-11-21T12:07:49;98618.94;;;7.01;100.00
18509;BME280;9383;50.928;12.116;2023-11-21T12:10:18;98632.19;;;6.98;100.00
18509;BME280;9383;50.928;12.116;2023-11-21T12:12:48;98615.09;;;6.78;100.00
18509;BME280;9383;50.928;12.116;2023-11-21T12:15:16;98601.41;;;6.64;100.00
18509;BME280;9383;50.928;12.116;2023-11-21T12:17:43;98623.16;;;6.72;100.00
18509;BME280;9383;50.928;12.116;2023-11-21T12:20:12;98650.25;;;6.77;100.00
18509;BME280;9383;50.928;12.116;2023-11-21T12:22:46;98651.25;;;6.73;100.00
18509;BME280;9383;50.928;12.116;2023-11-21T12:25:19;98604.72;;;6.36;100.00
18509;BME280;9383;50.928;12.116;2023-11-21T12:27:48;98643.00;;;6.49;100.00
18509;BME280;9383;50.928;12.116;2023-11-21T12:30:18;98585.00;;;6.14;100.00
18509;BME280;9383;50.928;12.116;2023-11-21T12:32:51;98643.13;;;6.44;100.00
18509;BME280;9383;50.928;12.116;2023-11-21T12:35:19;98668.44;;;6.50;100.00
18509;BME280;9383;50.928;12.116;2023-11-21T12:37:47;98665.91;;;6.45;100.00
18509;BME280;9383;50.928;12.116;2023-11-21T12:40:15;98525.84;;;5.51;100.00
18509;BME280;9383;50.928;12.116;2023-11-21T12:42:45;98645.41;;;6.21;100.00
18509;BME280;9383;50.928;12.116;2023-11-21T12:45:29;98682.78;;;6.37;100.00
18509;BME280;9383;50.928;12.116;2023-11-21T12:48:02;98684.59;;;6.35;100.00
18509;BME280;9383;50.928;12.116;2023-11-21T12:50:34;98644.84;;;6.06;100.00
18509;BME280;9383;50.928;12.116;2023-11-21T12:53:06;98665.59;;;6.20;100.00
18509;BME280;9383;50.928;12.116;2023-11-21T12:55:35;98690.88;;;6.27;100.00
18509;BME280;9383;50.928;12.116;2023-11-21T12:58:07;98618.91;;;5.86;100.00
18509;BME280;9383;50.928;12.116;2023-11-21T13:00:42;98693.59;;;6.24;100.00
18509;BME280;9383;50.928;12.116;2023-11-21T13:03:11;98687.50;;;6.22;100.00
18509;BME280;9383;50.928;12.116;2023-11-21T13:05:49;98640.88;;;5.85;100.00
18509;BME280;9383;50.928;12.116;2023-11-21T13:08:17;98618.44;;;5.65;100.00
18509;BME280;9383;50.928;12.116;2023-11-21T13:10:53;98712.34;;;6.09;100.00
18509;BME280;9383;50.928;12.116;2023-11-21T13:13:21;98701.91;;;6.04;100.00
18509;BME280;9383;50.928;12.116;2023-11-21T13:15:55;98662.16;;;5.72;100.00
18509;BME280;9383;50.928;12.116;2023-11-21T13:18:23;98648.56;;;5.50;100.00